sensor_id;sensor_type;location;lat;lon;timestamp;pressure;altitude;pressure_sealevel;temperature;humidity
63019;BME280;49105;46.046;10.760;2023-10-13T00:01:53;96204.22;;;16.79;78.36
63019;BME280;49105;46.046;10.760;2023-10-13T00:04:20;96213.84;;;16.80;78.62
63019;BME280;49105;46.046;10.760;2023-10-13T00:06:53;96202.56;;;16.83;78.58
63019;BME280;49105;46.046;10.760;2023-10-13T00:09:19;96204.00;;;16.90;78.39
63019;BME280;49105;46.046;10.760;2023-10-13T00:11:50;96217.19;;;17.00;77.78
63019;BME280;49105;46.046;10.760;2023-10-13T00:14:18;96213.41;;;17.01;77.80
63019;BME280;49105;46.046;10.760;2023-10-13T00:16:44;96206.66;;;17.03;77.48
63019;BME280;49105;46.046;10.760;2023-10-13T00:19:30;96205.59;;;17.04;77.29
63019;BME280;49105;46.046;10.760;2023-10-13T00:22:13;96205.28;;;17.06;77.37
63019;BME280;49105;46.046;10.760;2023-10-13T00:24:42;96205.28;;;17.06;77.23
63019;BME280;49105;46.046;10.760;2023-10-13T00:27:21;96196.78;;;17.04;77.02
63019;BME280;49105;46.046;10.760;2023-10-13T00:30:06;96202.72;;;17.01;77.08
63019;BME280;49105;46.046;10.760;2023-10-13T00:32:44;96212.72;;;16.81;77.94
63019;BME280;49105;46.046;10.760;2023-10-13T00:35:12;96208.09;;;16.73;78.14
63019;BME280;49105;46.046;10.760;2023-10-13T00:37:51;96199.56;;;16.71;78.36
63019;BME280;49105;46.046;10.760;2023-10-13T00:40:19;96196.59;;;16.73;78.31
63019;BME280;49105;46.046;10.760;2023-10-13T00:43:00;96203.53;;;16.74;78.22
63019;BME280;49105;46.046;10.760;2023-10-13T00:51:04;96202.16;;;16.76;77.93
63019;BME280;49105;46.046;10.760;2023-10-13T00:53:37;96196.59;;;16.73;77.76
63019;BME280;49105;46.046;10.760;2023-10-13T00:56:05;96201.44;;;16.71;77.69
63019;BME280;49105;46.046;10.760;2023-10-13T00:58:44;96196.78;;;16.62;77.84
63019;BME280;49105;46.046;10.760;2023-10-13T01:01:11;96198.16;;;16.60;77.86
63019;BME280;49105;46.046;10.760;2023-10-13T01:03:52;96191.81;;;16.56;78.03
63019;BME280;49105;46.046;10.760;2023-10-13T01:06:24;96194.56;;;16.37;78.66
63019;BME280;49105;46.046;10.760;2023-10-13T01:09:06;96196.75;;;16.21;79.34
63019;BME280;49105;46.046;10.760;2023-10-13T01:11:41;96198.91;;;16.19;79.24
63019;BME280;49105;46.046;10.760;2023-10-13T01:14:12;96194.16;;;16.16;79.13
63019;BME280;49105;46.046;10.760;2023-10-13T01:16:40;96191.00;;;16.14;79.24
63019;BME280;49105;46.046;10.760;2023-10-13T01:19:10;96182.47;;;16.12;79.73
63019;BME280;49105;46.046;10.760;2023-10-13T01:21:37;96185.44;;;16.10;79.83
63019;BME280;49105;46.046;10.760;2023-10-13T01:24:06;96191.38;;;16.07;79.64
63019;BME280;49105;46.046;10.760;2023-10-13T01:26:34;96187.38;;;15.91;79.75
63019;BME280;49105;46.046;10.760;2023-10-13T01:29:05;96189.13;;;15.82;80.31
63019;BME280;49105;46.046;10.760;2023-10-13T01:31:43;96177.66;;;15.81;80.06
63019;BME280;49105;46.046;10.760;2023-10-13T01:34:19;96175.78;;;15.82;80.16
63019;BME280;49105;46.046;10.760;2023-10-13T01:36:55;96177.09;;;15.84;80.01
63019;BME280;49105;46.046;10.760;2023-10-13T01:39:24;96171.94;;;15.88;79.92
63019;BME280;49105;46.046;10.760;2023-10-13T01:41:56;96165.81;;;15.87;79.70
63019;BME280;49105;46.046;10.760;2023-10-13T01:44:25;96157.53;;;15.89;79.67
63019;BME280;49105;46.046;10.760;2023-10-13T01:46:56;96164.44;;;15.90;79.53
63019;BME280;49105;46.046;10.760;2023-10-13T01:49:27;96163.66;;;15.90;79.61
63019;BME280;49105;46.046;10.760;2023-10-13T01:51:53;96161.84;;;15.85;79.51
63019;BME280;49105;46.046;10.760;2023-10-13T01:54:19;96158.47;;;15.79;79.66
63019;BME280;49105;46.046;10.760;2023-10-13T01:56:46;96164.09;;;15.78;80.07
63019;BME280;49105;46.046;10.760;2023-10-13T01:59:14;96160.66;;;15.77;79.93
63019;BME280;49105;46.046;10.760;2023-10-13T02:01:40;96161.13;;;15.79;80.02
63019;BME280;49105;46.046;10.760;2023-10-13T02:04:08;96166.19;;;15.81;80.00
63019;BME280;49105;46.046;10.760;2023-10-13T02:06:36;96170.94;;;15.84;79.96
63019;BME280;49105;46.046;10.760;2023-10-13T02:09:05;96169.25;;;15.88;79.98
63019;BME280;49105;46.046;10.760;2023-10-13T02:11:52;96173.94;;;15.96;79.98
63019;BME280;49105;46.046;10.760;2023-10-13T02:14:21;96168.78;;;16.00;79.41
63019;BME280;49105;46.046;10.760;2023-10-13T02:17:10;96172.81;;;15.83;79.62
63019;BME280;49105;46.046;10.760;2023-10-13T02:19:42;96169.81;;;15.71;80.23
63019;BME280;49105;46.046;10.760;2023-10-13T02:22:14;96165.56;;;15.70;80.53
63019;BME280;49105;46.046;10.760;2023-10-13T02:25:05;96175.34;;;15.75;80.53
63019;BME280;49105;46.046;10.760;2023-10-13T02:27:41;96171.91;;;15.74;80.76
63019;BME280;49105;46.046;10.760;2023-10-13T02:30:09;96174.00;;;15.77;80.99
63019;BME280;49105;46.046;10.760;2023-10-13T02:32:40;96175.09;;;15.76;80.80
63019;BME280;49105;46.046;10.760;2023-10-13T02:35:09;96172.69;;;15.75;80.85
63019;BME280;49105;46.046;10.760;2023-10-13T02:37:41;96178.03;;;15.75;80.80
63019;BME280;49105;46.046;10.760;2023-10-13T02:40:11;96174.47;;;15.79;80.86
63019;BME280;49105;46.046;10.760;2023-10-13T02:42:37;96175.47;;;15.83;80.57
63019;BME280;49105;46.046;10.760;2023-10-13T02:45:04;96180.16;;;15.92;80.18
63019;BME280;49105;46.046;10.760;2023-10-13T02:47:30;96176.91;;;15.95;79.95
63019;BME280;49105;46.046;10.760;2023-10-13T02:49:57;96171.88;;;15.93;79.74
63019;BME280;49105;46.046;10.760;2023-10-13T02:52:26;96171.25;;;15.96;79.47
63019;BME280;49105;46.046;10.760;2023-10-13T02:54:52;96170.97;;;15.98;79.59
63019;BME280;49105;46.046;10.760;2023-10-13T02:57:18;96174.75;;;15.97;79.37
63019;BME280;49105;46.046;10.760;2023-10-13T02:59:45;96170.56;;;15.91;79.18
63019;BME280;49105;46.046;10.760;2023-10-13T03:02:21;96164.75;;;15.88;79.41
63019;BME280;49105;46.046;10.760;2023-10-13T03:04:51;96163.06;;;15.93;79.16
63019;BME280;49105;46.046;10.760;2023-10-13T03:07:17;96162.56;;;15.91;79.05
63019;BME280;49105;46.046;10.760;2023-10-13T03:09:51;96165.22;;;15.91;78.98
63019;BME280;49105;46.046;10.760;2023-10-13T03:12:18;96158.50;;;15.93;78.80
63019;BME280;49105;46.046;10.760;2023-10-13T03:14:44;96166.91;;;15.86;78.80
63019;BME280;49105;46.046;10.760;2023-10-13T03:17:13;96169.88;;;15.85;78.84
63019;BME280;49105;46.046;10.760;2023-10-13T03:19:44;96167.41;;;15.88;78.83
63019;BME280;49105;46.046;10.760;2023-10-13T03:22:15;96163.75;;;15.84;78.77
63019;BME280;49105;46.046;10.760;2023-10-13T03:24:42;96155.72;;;15.84;78.78
63019;BME280;49105;46.046;10.760;2023-10-13T03:27:17;96160.97;;;15.90;78.58
63019;BME280;49105;46.046;10.760;2023-10-13T03:29:47;96153.25;;;15.88;78.56
63019;BME280;49105;46.046;10.760;2023-10-13T03:32:14;96150.31;;;15.90;78.40
63019;BME280;49105;46.046;10.760;2023-10-13T03:34:45;96147.06;;;15.93;78.25
63019;BME280;49105;46.046;10.760;2023-10-13T03:37:18;96156.72;;;15.88;78.21
63019;BME280;49105;46.046;10.760;2023-10-13T03:39:47;96155.34;;;15.91;78.13
63019;BME280;49105;46.046;10.760;2023-10-13T03:42:13;96154.75;;;15.94;78.14
63019;BME280;49105;46.046;10.760;2023-10-13T03:44:45;96159.50;;;15.97;77.89
63019;BME280;49105;46.046;10.760;2023-10-13T03:47:12;96151.00;;;15.95;77.77
63019;BME280;49105;46.046;10.760;2023-10-13T03:49:54;96154.06;;;15.88;77.85
63019;BME280;49105;46.046;10.760;2023-10-13T03:52:40;96160.47;;;15.87;77.93
63019;BME280;49105;46.046;10.760;2023-10-13T03:55:06;96155.63;;;15.90;77.89
63019;BME280;49105;46.046;10.760;2023-10-13T03:57:32;96164.91;;;15.78;77.70
63019;BME280;49105;46.046;10.760;2023-10-13T04:00:04;96165.09;;;15.63;78.36
63019;BME280;49105;46.046;10.760;2023-10-13T04:02:34;96161.81;;;15.52;78.64
63019;BME280;49105;46.046;10.760;2023-10-13T04:05:02;96164.97;;;15.54;78.83
63019;BME280;49105;46.046;10.760;2023-10-13T04:07:33;96172.31;;;15.62;78.58
63019;BME280;49105;46.046;10.760;2023-10-13T04:10:07;96168.22;;;15.70;78.66
63019;BME280;49105;46.046;10.760;2023-10-13T04:12:52;96167.13;;;15.71;78.31
63019;BME280;49105;46.046;10.760;2023-10-13T04:15:36;96175.66;;;15.73;78.07
63019;BME280;49105;46.046;10.760;2023-10-13T04:18:07;96172.59;;;15.80;77.97
63019;BME280;49105;46.046;10.760;2023-10-13T04:20:54;96172.31;;;15.81;77.93
63019;BME280;49105;46.046;10.760;2023-10-13T04:23:32;96167.78;;;15.82;77.68
63019;BME280;49105;46.046;10.760;2023-10-13T04:26:18;96169.13;;;15.79;77.79
63019;BME280;49105;46.046;10.760;2023-10-13T04:28:47;96166.00;;;15.77;77.77
63019;BME280;49105;46.046;10.760;2023-10-13T04:31:18;96166.19;;;15.81;77.74
63019;BME280;49105;46.046;10.760;2023-10-13T04:34:09;96168.00;;;15.85;77.54
63019;BME280;49105;46.046;10.760;2023-10-13T04:36:44;96163.44;;;15.86;77.12
63019;BME280;49105;46.046;10.760;2023-10-13T04:39:21;96167.94;;;15.72;77.40
63019;BME280;49105;46.046;10.760;2023-10-13T04:42:05;96157.25;;;15.72;77.34
63019;BME280;49105;46.046;10.760;2023-10-13T04:44:51;96165.56;;;15.70;77.40
63019;BME280;49105;46.046;10.760;2023-10-13T04:47:24;96161.81;;;15.71;77.33
63019;BME280;49105;46.046;10.760;2023-10-13T04:49:54;96164.97;;;15.73;76.89
63019;BME280;49105;46.046;10.760;2023-10-13T04:52:25;96162.00;;;15.75;76.92
63019;BME280;49105;46.046;10.760;2023-10-13T04:55:09;96162.75;;;15.80;76.71
63019;BME280;49105;46.046;10.760;2023-10-13T04:57:41;96166.56;;;15.74;76.73
63019;BME280;49105;46.046;10.760;2023-10-13T05:00:19;96165.56;;;15.70;76.53
63019;BME280;49105;46.046;10.760;2023-10-13T05:02:46;96171.69;;;15.71;76.60
63019;BME280;49105;46.046;10.760;2023-10-13T05:05:31;96168.75;;;15.72;76.67
63019;BME280;49105;46.046;10.760;2023-10-13T05:08:12;96173.00;;;15.73;76.49
63019;BME280;49105;46.046;10.760;2023-10-13T05:10:56;96184.38;;;15.79;76.29
63019;BME280;49105;46.046;10.760;2023-10-13T05:14:00;96180.91;;;15.78;76.35
63019;BME280;49105;46.046;10.760;2023-10-13T05:16:44;96178.53;;;15.77;76.27
63019;BME280;49105;46.046;10.760;2023-10-13T05:19:28;96187.34;;;15.77;76.30
63019;BME280;49105;46.046;10.760;2023-10-13T05:22:12;96183.28;;;15.80;76.32
63019;BME280;49105;46.046;10.760;2023-10-13T05:24:56;96192.09;;;15.80;76.20
63019;BME280;49105;46.046;10.760;2023-10-13T05:27:40;96193.47;;;15.78;75.84
63019;BME280;49105;46.046;10.760;2023-10-13T05:30:24;96198.00;;;15.77;75.92
63019;BME280;49105;46.046;10.760;2023-10-13T05:33:08;96201.81;;;15.71;75.79
63019;BME280;49105;46.046;10.760;2023-10-13T05:35:52;96206.38;;;15.71;76.08
63019;BME280;49105;46.046;10.760;2023-10-13T05:38:36;96202.69;;;15.67;75.88
63019;BME280;49105;46.046;10.760;2023-10-13T05:41:22;96209.97;;;15.61;76.25
63019;BME280;49105;46.046;10.760;2023-10-13T05:44:06;96214.53;;;15.60;76.11
63019;BME280;49105;46.046;10.760;2023-10-13T05:46:50;96208.78;;;15.72;75.90
63019;BME280;49105;46.046;10.760;2023-10-13T05:49:36;96212.44;;;15.76;75.21
63019;BME280;49105;46.046;10.760;2023-10-13T05:52:30;96215.38;;;15.75;74.88
63019;BME280;49105;46.046;10.760;2023-10-13T05:55:15;96222.13;;;15.72;75.06
63019;BME280;49105;46.046;10.760;2023-10-13T05:57:59;96223.69;;;15.73;74.99
63019;BME280;49105;46.046;10.760;2023-10-13T06:00:42;96221.81;;;15.74;75.00
63019;BME280;49105;46.046;10.760;2023-10-13T06:03:27;96230.03;;;15.77;74.92
63019;BME280;49105;46.046;10.760;2023-10-13T06:06:12;96227.84;;;15.79;74.56
63019;BME280;49105;46.046;10.760;2023-10-13T06:08:56;96239.13;;;15.76;74.74
63019;BME280;49105;46.046;10.760;2023-10-13T06:11:40;96241.72;;;15.81;74.41
63019;BME280;49105;46.046;10.760;2023-10-13T06:14:25;96245.41;;;15.85;73.92
63019;BME280;49105;46.046;10.760;2023-10-13T06:17:09;96239.53;;;15.83;74.14
63019;BME280;49105;46.046;10.760;2023-10-13T06:19:54;96241.94;;;15.85;74.35
63019;BME280;49105;46.046;10.760;2023-10-13T06:22:38;96246.06;;;15.77;74.45
63019;BME280;49105;46.046;10.760;2023-10-13T06:25:21;96246.84;;;15.78;74.59
63019;BME280;49105;46.046;10.760;2023-10-13T06:28:06;96250.59;;;15.77;74.33
63019;BME280;49105;46.046;10.760;2023-10-13T06:30:58;96248.16;;;15.80;74.47
63019;BME280;49105;46.046;10.760;2023-10-13T06:33:24;96250.22;;;15.83;74.44
63019;BME280;49105;46.046;10.760;2023-10-13T06:35:57;96248.75;;;15.91;73.99
63019;BME280;49105;46.046;10.760;2023-10-13T06:38:23;96261.53;;;15.94;74.12
63019;BME280;49105;46.046;10.760;2023-10-13T06:40:49;96263.41;;;15.94;74.02
63019;BME280;49105;46.046;10.760;2023-10-13T06:43:16;96259.66;;;15.95;74.18
63019;BME280;49105;46.046;10.760;2023-10-13T06:45:43;96264.13;;;15.99;73.81
63019;BME280;49105;46.046;10.760;2023-10-13T06:48:16;96263.03;;;16.00;73.65
63019;BME280;49105;46.046;10.760;2023-10-13T06:50:48;96264.34;;;16.03;73.43
63019;BME280;49105;46.046;10.760;2023-10-13T06:53:13;96268.59;;;16.04;73.15
63019;BME280;49105;46.046;10.760;2023-10-13T06:55:39;96273.34;;;16.07;73.11
63019;BME280;49105;46.046;10.760;2023-10-13T06:58:08;96273.34;;;16.07;72.67
63019;BME280;49105;46.046;10.760;2023-10-13T07:00:39;96271.19;;;16.09;72.47
63019;BME280;49105;46.046;10.760;2023-10-13T07:03:24;96274.47;;;16.20;72.44
63019;BME280;49105;46.046;10.760;2023-10-13T07:05:51;96278.66;;;16.26;72.41
63019;BME280;49105;46.046;10.760;2023-10-13T07:08:17;96273.31;;;16.26;72.11
63019;BME280;49105;46.046;10.760;2023-10-13T07:10:49;96276.25;;;16.24;72.37
63019;BME280;49105;46.046;10.760;2023-10-13T07:13:17;96278.94;;;16.24;72.24
63019;BME280;49105;46.046;10.760;2023-10-13T07:15:47;96274.09;;;16.26;71.94
63019;BME280;49105;46.046;10.760;2023-10-13T07:18:15;96276.69;;;16.31;71.75
63019;BME280;49105;46.046;10.760;2023-10-13T07:20:44;96277.16;;;16.33;71.17
63019;BME280;49105;46.046;10.760;2023-10-13T07:23:12;96281.16;;;16.36;71.20
63019;BME280;49105;46.046;10.760;2023-10-13T07:25:52;96276.09;;;16.34;70.28
63019;BME280;49105;46.046;10.760;2023-10-13T07:28:20;96289.56;;;16.29;70.13
63019;BME280;49105;46.046;10.760;2023-10-13T07:30:45;96281.25;;;16.31;70.44
63019;BME280;49105;46.046;10.760;2023-10-13T07:33:20;96281.66;;;16.38;70.17
63019;BME280;49105;46.046;10.760;2023-10-13T07:35:47;96288.00;;;16.42;70.28
63019;BME280;49105;46.046;10.760;2023-10-13T07:38:19;96281.94;;;16.36;70.21
63019;BME280;49105;46.046;10.760;2023-10-13T07:40:46;96292.13;;;16.34;70.13
63019;BME280;49105;46.046;10.760;2023-10-13T07:43:16;96288.84;;;16.37;70.17
63019;BME280;49105;46.046;10.760;2023-10-13T07:45:46;96289.00;;;16.46;70.06
63019;BME280;49105;46.046;10.760;2023-10-13T07:48:19;96290.47;;;16.52;69.86
63019;BME280;49105;46.046;10.760;2023-10-13T07:50:44;96291.59;;;16.51;69.21
63019;BME280;49105;46.046;10.760;2023-10-13T07:53:11;96300.00;;;16.58;69.43
63019;BME280;49105;46.046;10.760;2023-10-13T07:55:48;96298.50;;;16.66;69.27
63019;BME280;49105;46.046;10.760;2023-10-13T07:58:28;96298.44;;;16.71;68.90
63019;BME280;49105;46.046;10.760;2023-10-13T08:00:54;96307.41;;;16.80;69.07
63019;BME280;49105;46.046;10.760;2023-10-13T08:03:35;96301.94;;;16.85;68.39
63019;BME280;49105;46.046;10.760;2023-10-13T08:06:09;96300.38;;;16.84;68.05
63019;BME280;49105;46.046;10.760;2023-10-13T08:08:38;96295.81;;;16.85;67.86
63019;BME280;49105;46.046;10.760;2023-10-13T08:11:08;96306.13;;;16.92;68.10
63019;BME280;49105;46.046;10.760;2023-10-13T08:13:43;96294.75;;;17.00;68.20
63019;BME280;49105;46.046;10.760;2023-10-13T08:16:15;96295.91;;;17.07;67.93
63019;BME280;49105;46.046;10.760;2023-10-13T08:18:51;96295.81;;;17.13;67.78
63019;BME280;49105;46.046;10.760;2023-10-13T08:21:21;96294.03;;;17.08;67.71
63019;BME280;49105;46.046;10.760;2023-10-13T08:24:07;96300.97;;;17.09;67.83
63019;BME280;49105;46.046;10.760;2023-10-13T08:26:34;96293.25;;;17.21;67.82
63019;BME280;49105;46.046;10.760;2023-10-13T08:29:18;96289.88;;;17.29;67.50
63019;BME280;49105;46.046;10.760;2023-10-13T08:31:45;96302.03;;;17.35;67.64
63019;BME280;49105;46.046;10.760;2023-10-13T08:34:31;96295.19;;;17.43;67.57
63019;BME280;49105;46.046;10.760;2023-10-13T08:37:04;96288.75;;;17.44;67.39
63019;BME280;49105;46.046;10.760;2023-10-13T08:39:53;96294.78;;;17.50;67.51
63019;BME280;49105;46.046;10.760;2023-10-13T08:42:30;96293.78;;;17.59;67.53
63019;BME280;49105;46.046;10.760;2023-10-13T08:45:16;96283.72;;;17.65;67.41
63019;BME280;49105;46.046;10.760;2023-10-13T08:47:48;96285.69;;;17.73;67.22
63019;BME280;49105;46.046;10.760;2023-10-13T08:50:36;96287.22;;;17.79;66.93
63019;BME280;49105;46.046;10.760;2023-10-13T08:53:22;96279.84;;;17.85;66.78
63019;BME280;49105;46.046;10.760;2023-10-13T08:58:31;96283.22;;;17.91;66.33
63019;BME280;49105;46.046;10.760;2023-10-13T09:01:15;96279.13;;;17.93;66.10
63019;BME280;49105;46.046;10.760;2023-10-13T09:04:12;96275.53;;;17.98;65.09
63019;BME280;49105;46.046;10.760;2023-10-13T09:06:51;96279.03;;;17.98;65.05
63019;BME280;49105;46.046;10.760;2023-10-13T09:09:23;96282.97;;;18.01;65.27
63019;BME280;49105;46.046;10.760;2023-10-13T09:11:53;96274.94;;;18.01;64.72
63019;BME280;49105;46.046;10.760;2023-10-13T09:14:36;96272.56;;;17.99;64.53
63019;BME280;49105;46.046;10.760;2023-10-13T09:17:07;96269.09;;;17.99;63.94
63019;BME280;49105;46.046;10.760;2023-10-13T09:19:46;96269.28;;;18.02;64.28
63019;BME280;49105;46.046;10.760;2023-10-13T09:22:41;96270.53;;;18.05;64.24
63019;BME280;49105;46.046;10.760;2023-10-13T09:25:08;96268.84;;;18.09;63.73
63019;BME280;49105;46.046;10.760;2023-10-13T09:27:39;96268.72;;;18.14;63.61
63019;BME280;49105;46.046;10.760;2023-10-13T09:30:05;96260.75;;;18.23;63.55
63019;BME280;49105;46.046;10.760;2023-10-13T09:32:47;96259.53;;;18.29;63.11
63019;BME280;49105;46.046;10.760;2023-10-13T09:35:20;96260.00;;;18.31;62.70
63019;BME280;49105;46.046;10.760;2023-10-13T09:37:52;96251.22;;;18.39;62.88
63019;BME280;49105;46.046;10.760;2023-10-13T09:40:22;96240.84;;;18.46;63.13
63019;BME280;49105;46.046;10.760;2023-10-13T09:42:54;96243.56;;;18.55;63.03
63019;BME280;49105;46.046;10.760;2023-10-13T09:45:30;96239.66;;;18.61;62.38
63019;BME280;49105;46.046;10.760;2023-10-13T09:48:02;96234.16;;;18.66;62.11
63019;BME280;49105;46.046;10.760;2023-10-13T09:50:43;96235.94;;;18.71;62.30
63019;BME280;49105;46.046;10.760;2023-10-13T09:53:10;96245.91;;;18.79;62.13
63019;BME280;49105;46.046;10.760;2023-10-13T09:55:54;96230.50;;;18.84;61.53
63019;BME280;49105;46.046;10.760;2023-10-13T09:58:28;96229.41;;;18.94;61.72
63019;BME280;49105;46.046;10.760;2023-10-13T10:01:06;96222.63;;;18.97;60.06
63019;BME280;49105;46.046;10.760;2023-10-13T10:03:45;96227.53;;;19.03;60.64
63019;BME280;49105;46.046;10.760;2023-10-13T10:06:21;96223.44;;;19.06;60.46
63019;BME280;49105;46.046;10.760;2023-10-13T10:09:04;96226.44;;;19.13;60.33
63019;BME280;49105;46.046;10.760;2023-10-13T10:17:08;96204.25;;;19.30;60.53
63019;BME280;49105;46.046;10.760;2023-10-13T10:19:49;96205.97;;;19.34;60.53
63019;BME280;49105;46.046;10.760;2023-10-13T10:22:29;96206.59;;;19.40;60.52
63019;BME280;49105;46.046;10.760;2023-10-13T10:25:31;96207.09;;;19.42;60.45
63019;BME280;49105;46.046;10.760;2023-10-13T10:28:10;96202.50;;;19.43;60.34
63019;BME280;49105;46.046;10.760;2023-10-13T10:30:37;96197.94;;;19.43;60.19
63019;BME280;49105;46.046;10.760;2023-10-13T10:33:08;96195.25;;;19.52;60.29
63019;BME280;49105;46.046;10.760;2023-10-13T10:35:45;96194.91;;;19.53;60.17
63019;BME280;49105;46.046;10.760;2023-10-13T10:38:16;96187.50;;;19.59;60.38
63019;BME280;49105;46.046;10.760;2023-10-13T10:43:35;96184.53;;;19.69;60.46
63019;BME280;49105;46.046;10.760;2023-10-13T10:46:28;96183.25;;;19.67;60.21
63019;BME280;49105;46.046;10.760;2023-10-13T10:48:57;96181.50;;;19.62;60.02
63019;BME280;49105;46.046;10.760;2023-10-13T10:51:27;96177.25;;;19.61;59.77
63019;BME280;49105;46.046;10.760;2023-10-13T10:53:57;96180.25;;;19.59;59.44
63019;BME280;49105;46.046;10.760;2023-10-13T10:56:26;96174.72;;;19.56;59.60
63019;BME280;49105;46.046;10.760;2023-10-13T10:59:03;96170.91;;;19.57;59.53
63019;BME280;49105;46.046;10.760;2023-10-13T11:01:30;96164.44;;;19.58;59.44
63019;BME280;49105;46.046;10.760;2023-10-13T11:04:06;96157.97;;;19.59;59.53
63019;BME280;49105;46.046;10.760;2023-10-13T11:06:56;96162.88;;;19.66;59.70
63019;BME280;49105;46.046;10.760;2023-10-13T11:09:31;96157.50;;;19.74;59.97
63019;BME280;49105;46.046;10.760;2023-10-13T11:12:14;96160.50;;;19.81;60.07
63019;BME280;49105;46.046;10.760;2023-10-13T11:14:44;96154.16;;;19.86;60.25
63019;BME280;49105;46.046;10.760;2023-10-13T11:17:19;96137.41;;;19.89;59.96
63019;BME280;49105;46.046;10.760;2023-10-13T11:19:52;96140.25;;;19.93;60.04
63019;BME280;49105;46.046;10.760;2023-10-13T11:22:19;96131.53;;;20.04;60.19
63019;BME280;49105;46.046;10.760;2023-10-13T11:25:04;96132.25;;;20.22;60.23
63019;BME280;49105;46.046;10.760;2023-10-13T11:27:41;96130.94;;;20.37;59.14
63019;BME280;49105;46.046;10.760;2023-10-13T11:30:19;96124.59;;;20.50;58.29
63019;BME280;49105;46.046;10.760;2023-10-13T11:35:24;96119.38;;;20.75;58.23
63019;BME280;49105;46.046;10.760;2023-10-13T11:37:50;96122.03;;;20.84;57.71
63019;BME280;49105;46.046;10.760;2023-10-13T11:40:29;96111.41;;;20.87;57.83
63019;BME280;49105;46.046;10.760;2023-10-13T11:43:25;96106.59;;;20.93;57.58
63019;BME280;49105;46.046;10.760;2023-10-13T11:45:51;96108.31;;;20.97;57.57
63019;BME280;49105;46.046;10.760;2023-10-13T11:48:41;96096.25;;;21.03;57.64
63019;BME280;49105;46.046;10.760;2023-10-13T11:51:11;96106.03;;;21.08;57.42
63019;BME280;49105;46.046;10.760;2023-10-13T11:53:50;96093.22;;;21.05;56.75
63019;BME280;49105;46.046;10.760;2023-10-13T11:56:21;96085.16;;;21.05;56.81
63019;BME280;49105;46.046;10.760;2023-10-13T11:58:48;96088.75;;;21.09;56.74
63019;BME280;49105;46.046;10.760;2023-10-13T12:01:14;96077.22;;;21.09;56.05
63019;BME280;49105;46.046;10.760;2023-10-13T12:03:44;96068.00;;;21.10;56.00
63019;BME280;49105;46.046;10.760;2023-10-13T12:06:30;96071.63;;;21.14;55.99
63019;BME280;49105;46.046;10.760;2023-10-13T12:09:09;96070.97;;;21.17;56.11
63019;BME280;49105;46.046;10.760;2023-10-13T12:11:47;96063.03;;;21.20;56.25
63019;BME280;49105;46.046;10.760;2023-10-13T12:14:16;96064.72;;;21.25;56.10
63019;BME280;49105;46.046;10.760;2023-10-13T12:16:49;96059.47;;;21.28;56.10
63019;BME280;49105;46.046;10.760;2023-10-13T12:19:19;96061.03;;;21.29;55.79
63019;BME280;49105;46.046;10.760;2023-10-13T12:21:49;96051.84;;;21.30;55.79
63019;BME280;49105;46.046;10.760;2023-10-13T12:24:15;96044.25;;;21.33;55.83
63019;BME280;49105;46.046;10.760;2023-10-13T12:26:58;96042.13;;;21.38;55.57
63019;BME280;49105;46.046;10.760;2023-10-13T12:29:30;96044.50;;;21.40;55.05
63019;BME280;49105;46.046;10.760;2023-10-13T12:32:00;96048.31;;;21.39;54.99
63019;BME280;49105;46.046;10.760;2023-10-13T12:34:37;96031.97;;;21.44;55.50
63019;BME280;49105;46.046;10.760;2023-10-13T12:37:21;96030.84;;;21.45;54.58
63019;BME280;49105;46.046;10.760;2023-10-13T12:40:08;96027.59;;;21.51;54.99
63019;BME280;49105;46.046;10.760;2023-10-13T12:42:52;96031.75;;;21.49;54.76
63019;BME280;49105;46.046;10.760;2023-10-13T12:45:40;96024.09;;;21.51;54.98
63019;BME280;49105;46.046;10.760;2023-10-13T12:48:24;96025.00;;;21.55;55.14
63019;BME280;49105;46.046;10.760;2023-10-13T12:51:08;96018.50;;;21.56;55.01
63019;BME280;49105;46.046;10.760;2023-10-13T12:53:53;96011.09;;;21.53;54.25
63019;BME280;49105;46.046;10.760;2023-10-13T12:56:20;96012.44;;;21.59;54.75
63019;BME280;49105;46.046;10.760;2023-10-13T12:58:53;96006.84;;;21.64;54.92
63019;BME280;49105;46.046;10.760;2023-10-13T13:01:24;96010.78;;;21.67;54.92
63019;BME280;49105;46.046;10.760;2023-10-13T13:03:50;96017.75;;;21.68;54.86
63019;BME280;49105;46.046;10.760;2023-10-13T13:06:25;96009.34;;;21.69;54.92
63019;BME280;49105;46.046;10.760;2023-10-13T13:08:55;96005.66;;;21.74;54.82
63019;BME280;49105;46.046;10.760;2023-10-13T13:11:21;95998.00;;;21.76;54.89
63019;BME280;49105;46.046;10.760;2023-10-13T13:13:47;95995.00;;;21.77;54.99
63019;BME280;49105;46.046;10.760;2023-10-13T13:16:17;95994.63;;;21.79;54.64
63019;BME280;49105;46.046;10.760;2023-10-13T13:18:50;95987.69;;;21.78;54.39
63019;BME280;49105;46.046;10.760;2023-10-13T13:21:17;95988.00;;;21.76;54.25
63019;BME280;49105;46.046;10.760;2023-10-13T13:23:48;95982.63;;;21.76;53.80
63019;BME280;49105;46.046;10.760;2023-10-13T13:26:14;95981.94;;;21.79;53.92
63019;BME280;49105;46.046;10.760;2023-10-13T13:28:44;95972.31;;;21.78;53.81
63019;BME280;49105;46.046;10.760;2023-10-13T13:31:10;95973.44;;;21.77;53.84
63019;BME280;49105;46.046;10.760;2023-10-13T13:33:40;95970.41;;;21.79;54.15
63019;BME280;49105;46.046;10.760;2023-10-13T13:36:08;95963.44;;;21.78;53.50
63019;BME280;49105;46.046;10.760;2023-10-13T13:38:39;95961.53;;;21.78;53.65
63019;BME280;49105;46.046;10.760;2023-10-13T13:41:11;95972.75;;;21.80;53.85
63019;BME280;49105;46.046;10.760;2023-10-13T13:43:40;95963.56;;;21.82;54.20
63019;BME280;49105;46.046;10.760;2023-10-13T13:46:17;95973.19;;;21.83;54.06
63019;BME280;49105;46.046;10.760;2023-10-13T13:48:43;95965.56;;;21.85;54.19